createdAt,value
2016-04-07T00:00:30.995Z,97.97
2016-04-07T00:01:30.949Z,97.78
2016-04-07T00:02:30.874Z,97.97
2016-04-07T00:03:30.830Z,97.12
2016-04-07T00:04:30.786Z,97.22
2016-04-07T00:05:30.710Z,97.5
2016-04-07T00:06:30.666Z,97.78
2016-04-07T00:07:30.622Z,97.88
2016-04-07T00:08:30.562Z,97.31
2016-04-07T00:09:30.502Z,96.93
2016-04-07T00:10:30.442Z,97.03
2016-04-07T00:11:30.414Z,96.45
2016-04-07T00:12:30.355Z,96.55
2016-04-07T00:13:30.294Z,96.45
2016-04-07T00:14:30.250Z,97.03
2016-04-07T00:15:30.174Z,97.69
2016-04-07T00:16:30.170Z,97.31
2016-04-07T00:17:30.154Z,97.12
2016-04-07T00:18:30.139Z,97.12
2016-04-07T00:19:30.139Z,97.5
2016-04-07T00:20:30.139Z,96.65
2016-04-07T00:21:30.092Z,97.31
2016-04-07T00:22:30.080Z,97.03
2016-04-07T00:23:30.113Z,97.22
2016-04-07T00:24:29.975Z,97.41
2016-04-07T00:25:29.932Z,97.69
2016-04-07T00:26:29.898Z,98.07
2016-04-07T00:27:29.859Z,98.26
2016-04-07T00:28:29.789Z,98.07
2016-04-07T00:29:29.768Z,98.45
2016-04-07T00:30:29.712Z,97.78
2016-04-07T00:31:29.657Z,97.31
2016-04-07T00:32:29.615Z,97.22
2016-04-07T00:33:29.556Z,97.22
2016-04-07T00:34:29.498Z,97.97
2016-04-07T00:35:29.456Z,97.12
2016-04-07T00:36:29.413Z,96.84
2016-04-07T00:37:29.354Z,96.55
2016-04-07T00:38:29.357Z,96.08
2016-04-07T00:39:29.252Z,95.98
2016-04-07T00:40:29.193Z,96.17
2016-04-07T00:41:29.150Z,96.84
2016-04-07T00:42:29.089Z,97.78
2016-04-07T00:43:29.031Z,97.83
2016-04-07T00:44:28.971Z,98.12
2016-04-07T00:45:28.926Z,98.59
2016-04-07T00:46:28.868Z,98.31
2016-04-07T00:47:28.807Z,98.79
2016-04-07T00:48:28.778Z,98.4
2016-04-07T00:49:28.703Z,97.92
2016-04-07T00:50:28.659Z,97.27
2016-04-07T00:51:28.600Z,96.45
2016-04-07T00:52:28.539Z,96.69
2016-04-07T00:53:28.542Z,97.83
2016-04-07T00:54:28.436Z,97.64
2016-04-07T00:55:28.392Z,97.64
2016-04-07T00:56:28.331Z,96.98
2016-04-07T00:57:28.272Z,96.88
2016-04-07T00:58:28.212Z,97.36
2016-04-07T00:59:28.183Z,97.64
2016-04-07T01:00:28.124Z,98.21
2016-04-07T01:01:28.064Z,98.59
2016-04-07T01:02:28.020Z,98.5
2016-04-07T01:03:27.960Z,97.74
2016-04-07T01:04:27.885Z,97.74
2016-04-07T01:05:27.872Z,97.64
2016-04-07T01:06:27.797Z,96.88
2016-04-07T01:07:27.736Z,97.74
2016-04-07T01:08:27.849Z,98.5
2016-04-07T01:09:27.633Z,98.02
2016-04-07T01:10:27.572Z,98.4
2016-04-07T01:11:27.513Z,98.79
2016-04-07T01:12:27.469Z,98.79
2016-04-07T01:13:27.424Z,98.88
2016-04-07T01:14:27.349Z,98.4
2016-04-07T01:15:27.305Z,98.16
2016-04-07T01:16:27.245Z,98.83
2016-04-07T01:17:27.184Z,98.83
2016-04-07T01:18:27.140Z,98.83
2016-04-07T01:19:27.081Z,99.21
2016-04-07T01:20:27.053Z,98.59
2016-04-07T01:21:26.977Z,98.59
2016-04-07T01:22:26.948Z,99.44
2016-04-07T01:23:26.920Z,99.73
2016-04-07T01:24:26.828Z,99.83
2016-04-07T01:25:26.753Z,99.99
2016-04-07T01:26:26.709Z,99.99
2016-04-07T01:27:26.650Z,99.99
2016-04-07T01:28:26.605Z,99.99
2016-04-07T01:29:26.530Z,99.99
2016-04-07T01:30:26.486Z,99.99
2016-04-07T01:31:26.457Z,99.99
2016-04-07T01:32:26.381Z,99.99
2016-04-07T01:33:26.322Z,99.99
2016-04-07T01:34:26.261Z,99.99
2016-04-07T01:35:26.233Z,99.99
2016-04-07T01:36:26.158Z,99.99
2016-04-07T01:37:26.114Z,99.73
2016-04-07T01:38:26.055Z,99.54
2016-04-07T01:39:26.025Z,99.64
2016-04-07T01:40:25.950Z,99.11
2016-04-07T01:41:25.890Z,98.93
2016-04-07T01:42:25.846Z,98.45
2016-04-07T01:43:25.802Z,98.64
2016-04-07T01:44:25.743Z,98.59
2016-04-07T01:45:25.682Z,98.69
2016-04-07T01:46:25.623Z,97.83
2016-04-07T01:47:25.578Z,97.74
2016-04-07T01:48:25.518Z,97.64
2016-04-07T01:49:25.474Z,97.92
2016-04-07T01:50:25.430Z,97.74
2016-04-07T01:51:25.354Z,97.55
2016-04-07T01:52:25.295Z,97.64
2016-04-07T01:53:25.251Z,98.4
2016-04-07T01:54:25.190Z,97.83
2016-04-07T01:55:25.131Z,98.12
2016-04-07T01:56:25.087Z,98.59
2016-04-07T01:57:25.027Z,98.31
2016-04-07T01:58:24.983Z,98.73
2016-04-07T01:59:24.907Z,98.64
2016-04-07T02:00:24.878Z,98.59
2016-04-07T02:01:24.819Z,98.21
2016-04-07T02:02:24.759Z,98.02
2016-04-07T02:03:24.699Z,98.02
2016-04-07T02:04:24.655Z,98.88
2016-04-07T02:05:24.627Z,98.69
2016-04-07T02:06:24.535Z,98.59
2016-04-07T02:07:24.491Z,98.69
2016-04-07T02:08:24.432Z,98.5
2016-04-07T02:09:24.388Z,98.21
2016-04-07T02:10:24.328Z,98.02
2016-04-07T02:11:24.268Z,98.02
2016-04-07T02:12:24.223Z,98.5
2016-04-07T02:13:24.164Z,98.59
2016-04-07T02:14:24.104Z,98.35
2016-04-07T02:15:24.044Z,98.83
2016-04-07T02:16:24.000Z,99.3
2016-04-07T02:17:23.956Z,99.02
2016-04-07T02:18:23.880Z,98.97
2016-04-07T02:19:23.837Z,98.59
2016-04-07T02:20:23.792Z,98.83
2016-04-07T02:21:23.732Z,99.3
2016-04-07T02:22:23.673Z,99.99
2016-04-07T02:23:23.612Z,99.99
2016-04-07T02:24:23.568Z,99.68
2016-04-07T02:25:23.524Z,99.26
2016-04-07T02:26:23.465Z,99.3
2016-04-07T02:27:23.404Z,98.92
2016-04-07T02:28:23.345Z,98.59
2016-04-07T02:29:23.301Z,98.26
2016-04-07T02:30:23.242Z,98.64
2016-04-07T02:31:23.181Z,98.88
2016-04-07T02:32:23.136Z,98.83
2016-04-07T02:33:23.061Z,99.07
2016-04-07T02:34:23.048Z,98.31
2016-04-07T02:35:22.973Z,98.69
2016-04-07T02:36:22.914Z,98.59
2016-04-07T02:37:22.869Z,98.69
2016-04-07T02:38:22.808Z,98.79
2016-04-07T02:39:22.749Z,98.79
2016-04-07T02:40:22.705Z,98.4
2016-04-07T02:41:22.645Z,98.02
2016-04-07T02:42:22.585Z,98.88
2016-04-07T02:43:22.526Z,98.88
2016-04-07T02:44:22.482Z,98.69
2016-04-07T02:45:22.421Z,98.79
2016-04-07T02:46:22.362Z,98.88
2016-04-07T02:47:22.318Z,98.21
2016-04-07T02:48:22.258Z,98.69
2016-04-07T02:49:22.213Z,98.5
2016-04-07T02:50:22.170Z,98.31
2016-04-07T02:51:22.094Z,98.4
2016-04-07T02:52:22.065Z,98.02
2016-04-07T02:53:22.006Z,97.92
2016-04-07T02:54:21.931Z,98.88
2016-04-07T02:55:21.887Z,98.59
2016-04-07T02:56:21.826Z,98.88
2016-04-07T02:57:21.767Z,98.4
2016-04-07T02:58:21.737Z,98.21
2016-04-07T02:59:21.662Z,98.97
2016-04-07T03:00:21.603Z,98.59
2016-04-07T03:01:21.559Z,98.59
2016-04-07T03:02:21.498Z,98.12
2016-04-07T03:03:21.455Z,97.69
2016-04-07T03:04:21.411Z,96.84
2016-04-07T03:05:21.336Z,96.36
2016-04-07T03:06:21.291Z,96.74
2016-04-07T03:07:21.231Z,95.98
2016-04-07T03:08:21.187Z,96.08
2016-04-07T03:09:21.127Z,96.45
2016-04-07T03:10:21.067Z,96.45
2016-04-07T03:11:21.023Z,96.65
2016-04-07T03:12:20.964Z,96.26
2016-04-07T03:13:20.918Z,96.65
2016-04-07T03:14:20.859Z,97.12
2016-04-07T03:15:20.799Z,96.26
2016-04-07T03:16:20.755Z,96.36
2016-04-07T03:17:20.695Z,96.45
2016-04-07T03:18:20.651Z,96.55
2016-04-07T03:19:20.590Z,96.93
2016-04-07T03:20:20.547Z,97.5
2016-04-07T03:21:20.487Z,98.02
2016-04-07T03:22:20.443Z,97.74
2016-04-07T03:23:20.367Z,96.93
2016-04-07T03:24:20.323Z,97.03
2016-04-07T03:25:20.264Z,96.84
2016-04-07T03:26:20.204Z,97.41
2016-04-07T03:27:20.159Z,97.22
2016-04-07T03:28:20.100Z,97.69
2016-04-07T03:29:20.056Z,97.45
2016-04-07T03:30:19.995Z,98.07
2016-04-07T03:31:19.936Z,98.59
2016-04-07T03:32:19.892Z,98.59
2016-04-07T03:33:19.832Z,98.02
2016-04-07T03:34:19.819Z,98.4
2016-04-07T03:35:19.728Z,98.59
2016-04-07T03:36:19.669Z,98.97
2016-04-07T03:37:19.609Z,98.31
2016-04-07T03:38:19.580Z,98.64
2016-04-07T03:39:19.505Z,98.64
2016-04-07T03:40:19.523Z,98.5
2016-04-07T03:41:19.400Z,98.79
2016-04-07T03:42:19.341Z,98.59
2016-04-07T03:43:19.327Z,98.26
2016-04-07T03:44:19.237Z,98.36
2016-04-07T03:45:19.193Z,99.02
2016-04-07T03:46:19.133Z,98.93
2016-04-07T03:47:19.074Z,99.07
2016-04-07T03:48:19.012Z,98.97
2016-04-07T03:49:18.968Z,99.64
2016-04-07T03:50:18.924Z,99.26
2016-04-07T03:51:18.880Z,99.16
2016-04-07T03:52:18.820Z,98.69
2016-04-07T03:53:18.761Z,98.31
2016-04-07T03:54:18.718Z,98.59
2016-04-07T03:55:18.657Z,98.4
2016-04-07T03:56:18.597Z,98.4
2016-04-07T03:57:18.553Z,98.79
2016-04-07T03:58:18.337Z,98.88
2016-04-07T03:59:18.448Z,98.69
2016-04-07T04:00:18.404Z,98.59
2016-04-07T04:01:18.329Z,98.88
2016-04-07T04:02:18.284Z,98.59
2016-04-07T04:03:18.225Z,98.59
2016-04-07T04:04:18.165Z,98.97
2016-04-07T04:05:18.106Z,98.69
2016-04-07T04:06:18.045Z,98.69
2016-04-07T04:07:17.986Z,98.31
2016-04-07T04:08:17.942Z,98.4
2016-04-07T04:09:17.898Z,98.31
2016-04-07T04:10:17.853Z,98.31
2016-04-07T04:11:17.778Z,98.92
2016-04-07T04:12:17.734Z,98.21
2016-04-07T04:13:17.674Z,98.88
2016-04-07T04:14:17.630Z,98.31
2016-04-07T04:15:17.570Z,98.92
2016-04-07T04:16:17.510Z,98.69
2016-04-07T04:17:17.450Z,98.4
2016-04-07T04:18:17.391Z,98.59
2016-04-07T04:19:17.378Z,98.4
2016-04-07T04:20:17.302Z,97.64
2016-04-07T04:21:17.243Z,97.27
2016-04-07T04:22:17.214Z,96.6
2016-04-07T04:23:17.123Z,97.17
2016-04-07T04:24:17.094Z,97.55
2016-04-07T04:25:17.019Z,98.16
2016-04-07T04:26:16.974Z,98.54
2016-04-07T04:27:16.931Z,98.07
2016-04-07T04:28:16.871Z,98.83
2016-04-07T04:29:16.796Z,98.92
2016-04-07T04:30:16.750Z,99.49
2016-04-07T04:31:16.691Z,99.4
2016-04-07T04:32:16.647Z,99.4
2016-04-07T04:33:16.603Z,98.73
2016-04-07T04:34:16.528Z,98.79
2016-04-07T04:35:16.483Z,98.69
2016-04-07T04:36:16.439Z,98.4
2016-04-07T04:37:16.363Z,98.69
2016-04-07T04:38:16.319Z,98.88
2016-04-07T04:39:16.244Z,98.88
2016-04-07T04:40:16.278Z,98.97
2016-04-07T04:41:16.156Z,98.31
2016-04-07T04:42:16.096Z,98.21
2016-04-07T04:43:16.051Z,98.59
2016-04-07T04:44:15.991Z,98.79
2016-04-07T04:45:15.916Z,98.79
2016-04-07T04:46:15.872Z,98.02
2016-04-07T04:47:15.827Z,98.4
2016-04-07T04:48:15.768Z,98.59
2016-04-07T04:49:15.708Z,98.59
2016-04-07T04:50:15.680Z,98.59
2016-04-07T04:51:15.604Z,98.69
2016-04-07T04:52:15.560Z,98.59
2016-04-07T04:53:15.501Z,98.79
2016-04-07T04:54:15.441Z,98.79
2016-04-07T04:55:15.412Z,98.79
2016-04-07T04:56:15.337Z,98.69
2016-04-07T04:57:15.293Z,99.16
2016-04-07T04:58:15.248Z,98.88
2016-04-07T04:59:15.188Z,98.88
2016-04-07T05:00:15.128Z,98.88
2016-04-07T05:01:15.068Z,98.12
2016-04-07T05:02:15.025Z,98.5
2016-04-07T05:03:14.949Z,98.4
2016-04-07T05:04:14.905Z,98.02
2016-04-07T05:05:14.845Z,97.03
2016-04-07T05:06:14.801Z,95.79
2016-04-07T05:07:14.757Z,95.12
2016-04-07T05:08:14.697Z,94.56
2016-04-07T05:09:14.669Z,93.51
2016-04-07T05:10:14.592Z,93.51
2016-04-07T05:11:14.549Z,93.13
2016-04-07T05:12:14.489Z,93.65
2016-04-07T05:13:14.413Z,93.13
2016-04-07T05:14:14.370Z,92.85
2016-04-07T05:15:14.310Z,91.94
2016-04-07T05:16:14.250Z,92.03
2016-04-07T05:17:14.205Z,91.47
2016-04-07T05:18:14.161Z,91.18
2016-04-07T05:19:14.102Z,91.28
2016-04-07T05:20:14.041Z,91.56
2016-04-07T05:21:13.982Z,91.66
2016-04-07T05:22:13.969Z,90.8
2016-04-07T05:23:13.877Z,91.18
2016-04-07T05:24:13.912Z,90.99
2016-04-07T05:25:13.789Z,90.89
2016-04-07T05:26:13.729Z,90.8
2016-04-07T05:27:13.670Z,90.61
2016-04-07T05:28:13.610Z,89.75
2016-04-07T05:29:13.582Z,90.23
2016-04-07T05:30:13.506Z,90.33
2016-04-07T05:31:13.462Z,89.89
2016-04-07T05:32:13.401Z,89.51
2016-04-07T05:33:13.342Z,89.47
2016-04-07T05:34:13.314Z,89.51
2016-04-07T05:35:13.239Z,89.28
2016-04-07T05:36:13.209Z,89.51
2016-04-07T05:37:13.134Z,89.23
2016-04-07T05:38:13.075Z,88.56
2016-04-07T05:39:13.093Z,88.37
2016-04-07T05:40:12.986Z,87.8
2016-04-07T05:41:12.911Z,87.99
2016-04-07T05:42:12.866Z,87.52
2016-04-07T05:43:12.822Z,87.99
2016-04-07T05:44:12.763Z,87.42
2016-04-07T05:45:12.703Z,87.23
2016-04-07T05:46:12.689Z,87.13
2016-04-07T05:47:12.599Z,87.42
2016-04-07T05:48:12.555Z,86.66
2016-04-07T05:49:12.495Z,86.38
2016-04-07T05:50:12.450Z,86.85
2016-04-07T05:51:12.391Z,85.9
2016-04-07T05:52:12.347Z,85.52
2016-04-07T05:53:12.271Z,85.52
2016-04-07T05:54:12.290Z,85.24
2016-04-07T05:55:12.168Z,84.95
2016-04-07T05:56:12.139Z,85.14
2016-04-07T05:57:12.063Z,84.76
2016-04-07T05:58:12.018Z,84.38
2016-04-07T05:59:11.959Z,84.38
2016-04-07T06:00:11.915Z,84.56
2016-04-07T06:01:11.854Z,84.28
2016-04-07T06:02:11.795Z,84.47
2016-04-07T06:03:11.751Z,84.38
2016-04-07T06:04:11.895Z,84.28
2016-04-07T06:05:11.631Z,84.38
2016-04-07T06:06:11.587Z,84.28
2016-04-07T06:07:11.542Z,84.28
2016-04-07T06:08:11.467Z,84.47
2016-04-07T06:09:11.678Z,84.76
2016-04-07T06:10:11.369Z,84.66
2016-04-07T06:11:11.325Z,84.89
2016-04-07T06:12:11.264Z,84.8
2016-04-07T06:13:11.220Z,84.7
2016-04-07T06:14:11.161Z,84.8
2016-04-07T06:15:11.100Z,84.61
2016-04-07T06:16:11.072Z,84.99
2016-04-07T06:17:10.841Z,84.52
2016-04-07T06:18:10.937Z,84.7
2016-04-07T06:19:10.908Z,84.89
2016-04-07T06:20:10.833Z,84.89
2016-04-07T06:21:10.789Z,85.28
2016-04-07T06:22:10.729Z,85.37
2016-04-07T06:23:10.685Z,84.7
2016-04-07T06:24:10.656Z,84.61
2016-04-07T06:25:10.581Z,84.99
2016-04-07T06:26:10.520Z,85.37
2016-04-07T06:27:10.492Z,85.28
2016-04-07T06:28:10.417Z,84.7
2016-04-07T06:29:10.357Z,84.7
2016-04-07T06:30:10.297Z,84.61
2016-04-07T06:31:10.253Z,84.7
2016-04-07T06:32:10.209Z,84.23
2016-04-07T06:33:10.148Z,84.7
2016-04-07T06:34:10.105Z,84.52
2016-04-07T06:35:10.045Z,84.7
2016-04-07T06:36:10.001Z,84.7
2016-04-07T06:37:09.941Z,84.99
2016-04-07T06:38:09.897Z,84.42
2016-04-07T06:39:09.836Z,84.13
2016-04-07T06:40:09.778Z,84.61
2016-04-07T06:41:09.749Z,83.65
2016-04-07T06:42:09.673Z,84.04
2016-04-07T06:43:09.614Z,84.23
2016-04-07T06:44:09.586Z,83.94
2016-04-07T06:45:09.525Z,83.65
2016-04-07T06:46:09.465Z,83.85
2016-04-07T06:47:09.405Z,84.04
2016-04-07T06:48:09.361Z,83.85
2016-04-07T06:49:09.302Z,83.85
2016-04-07T06:50:09.258Z,84.23
2016-04-07T06:51:09.197Z,84.04
2016-04-07T06:52:09.138Z,83.75
2016-04-07T06:53:09.093Z,83.56
2016-04-07T06:54:09.049Z,83.18
2016-04-07T06:55:08.989Z,83.37
2016-04-07T06:56:08.960Z,83.56
2016-04-07T06:57:08.870Z,83.65
2016-04-07T06:58:08.826Z,83.28
2016-04-07T06:59:08.782Z,83.28
2016-04-07T07:00:08.737Z,83.37
2016-04-07T07:01:08.678Z,83.47
2016-04-07T07:02:08.633Z,83.37
2016-04-07T07:03:08.589Z,82.7
2016-04-07T07:04:08.514Z,82.46
2016-04-07T07:05:08.470Z,81.89
2016-04-07T07:06:08.410Z,81.85
2016-04-07T07:07:08.350Z,81.89
2016-04-07T07:08:08.306Z,81.98
2016-04-07T07:09:08.293Z,82.18
2016-04-07T07:10:08.202Z,82.27
2016-04-07T07:11:08.126Z,81.89
2016-04-07T07:12:08.082Z,82.08
2016-04-07T07:13:08.038Z,82.08
2016-04-07T07:14:07.978Z,81.98
2016-04-07T07:15:07.919Z,81.98
2016-04-07T07:16:07.969Z,81.51
2016-04-07T07:17:07.908Z,81.7
2016-04-07T07:18:07.786Z,81.51
2016-04-07T07:19:07.710Z,81.79
2016-04-07T07:20:07.682Z,81.6
2016-04-07T07:21:07.607Z,81.6
2016-04-07T07:22:07.546Z,81.13
2016-04-07T07:23:07.502Z,81.51
2016-04-07T07:24:07.457Z,81.79
2016-04-07T07:25:07.398Z,81.23
2016-04-07T07:26:07.354Z,81.41
2016-04-07T07:27:07.294Z,81.32
2016-04-07T07:28:07.235Z,80.55
2016-04-07T07:29:07.174Z,80.65
2016-04-07T07:30:07.146Z,80.94
2016-04-07T07:31:07.086Z,81.6
2016-04-07T07:32:06.902Z,80.94
2016-04-07T07:33:06.972Z,80.36
2016-04-07T07:34:10.115Z,80.84
2016-04-07T07:35:06.868Z,80.55
2016-04-07T07:36:06.809Z,80.75
2016-04-07T07:37:06.765Z,80.65
2016-04-07T07:38:06.736Z,80.84
2016-04-07T07:39:06.643Z,80.46
2016-04-07T07:40:06.603Z,80.36
2016-04-07T07:41:06.559Z,80.46
2016-04-07T07:42:06.483Z,80.36
2016-04-07T07:43:06.486Z,80.84
2016-04-07T07:44:06.379Z,80.36
2016-04-07T07:45:06.335Z,80.36
2016-04-07T07:46:06.275Z,80.46
2016-04-07T07:47:06.216Z,80.36
2016-04-07T07:48:06.172Z,80.46
2016-04-07T07:49:06.128Z,80.36
2016-04-07T07:50:06.083Z,80.75
2016-04-07T07:51:06.008Z,80.94
2016-04-07T07:52:05.963Z,80.75
2016-04-07T07:53:05.903Z,80.94
2016-04-07T07:54:05.859Z,80.94
2016-04-07T07:55:05.815Z,81.03
2016-04-07T07:56:05.755Z,81.03
2016-04-07T07:57:05.695Z,81.41
2016-04-07T07:58:05.651Z,81.51
2016-04-07T07:59:05.591Z,80.94
2016-04-07T08:00:05.422Z,80.84
2016-04-07T08:01:05.488Z,81.41
2016-04-07T08:02:05.427Z,81.13
2016-04-07T08:03:05.399Z,80.94
2016-04-07T08:04:05.324Z,81.32
2016-04-07T08:05:05.279Z,80.65
2016-04-07T08:06:05.345Z,80.41
2016-04-07T08:07:05.159Z,80.36
2016-04-07T08:08:05.131Z,80.88
2016-04-07T08:09:05.087Z,81.17
2016-04-07T08:10:05.012Z,81.36
2016-04-07T08:11:04.968Z,81.07
2016-04-07T08:12:04.908Z,81.07
2016-04-07T08:13:04.848Z,80.79
2016-04-07T08:14:04.834Z,80.79
2016-04-07T08:15:04.744Z,80.5
2016-04-07T08:16:04.700Z,80.69
2016-04-07T08:17:04.640Z,81.07
2016-04-07T08:18:04.612Z,81.17
2016-04-07T08:19:04.552Z,80.88
2016-04-07T08:20:04.492Z,80.79
2016-04-07T08:21:04.447Z,80.22
2016-04-07T08:22:04.388Z,80.12
2016-04-07T08:23:04.328Z,80.6
2016-04-07T08:24:04.299Z,81.07
2016-04-07T08:25:04.224Z,80.69
2016-04-07T08:26:04.179Z,80.5
2016-04-07T08:27:04.119Z,80.88
2016-04-07T08:28:04.076Z,80.69
2016-04-07T08:29:04.016Z,79.74
2016-04-07T08:30:03.972Z,80.41
2016-04-07T08:31:03.928Z,80.22
2016-04-07T08:32:03.915Z,80.5
2016-04-07T08:33:03.824Z,80.41
2016-04-07T08:34:03.748Z,80.31
2016-04-07T08:35:03.720Z,80.22
2016-04-07T08:36:03.659Z,80.41
2016-04-07T08:37:03.600Z,80.41
2016-04-07T08:38:03.558Z,80.02
2016-04-07T08:39:03.497Z,80.31
2016-04-07T08:40:03.453Z,79.93
2016-04-07T08:41:03.393Z,79.74
2016-04-07T08:42:03.333Z,79.64
2016-04-07T08:43:03.273Z,79.46
2016-04-07T08:44:03.244Z,79.46
2016-04-07T08:45:03.201Z,79.27
2016-04-07T08:46:03.141Z,79.36
2016-04-07T08:47:03.082Z,79.78
2016-04-07T08:48:03.021Z,79.02
2016-04-07T08:49:02.977Z,78.92
2016-04-07T08:50:02.917Z,79.02
2016-04-07T08:51:02.873Z,78.83
2016-04-07T08:52:02.922Z,79.02
2016-04-07T08:53:02.784Z,79.68
2016-04-07T08:54:03.162Z,79.88
2016-04-07T08:55:02.665Z,78.44
2016-04-07T08:56:02.636Z,78.06
2016-04-07T08:57:02.561Z,78.44
2016-04-07T08:58:02.501Z,78.73
2016-04-07T08:59:02.456Z,79.21
2016-04-07T09:00:02.397Z,78.35
2016-04-07T09:01:02.353Z,78.06
2016-04-07T09:02:02.293Z,77.97
2016-04-07T09:03:02.250Z,78.64
2016-04-07T09:04:02.189Z,78.54
2016-04-07T09:05:02.145Z,77.87
2016-04-07T09:06:02.100Z,77.69
2016-04-07T09:07:02.041Z,77.69
2016-04-07T09:08:14.718Z,77.97
2016-04-07T09:09:01.936Z,78.2
2016-04-07T09:10:01.955Z,77.91
2016-04-07T09:11:01.849Z,78.49
2016-04-07T09:12:01.773Z,77.72
2016-04-07T09:13:01.730Z,77.72
2016-04-07T09:14:01.685Z,76.67
2016-04-07T09:15:01.625Z,76.57
2016-04-07T09:16:01.580Z,77.34
2016-04-07T09:17:01.521Z,77.25
2016-04-07T09:18:01.477Z,77.15
2016-04-07T09:19:01.417Z,77.82
2016-04-07T09:20:01.373Z,77.44
2016-04-07T09:21:01.312Z,77.53
2016-04-07T09:22:01.254Z,76.67
2016-04-07T09:23:01.233Z,77.15
2016-04-07T09:24:01.209Z,77.11
2016-04-07T09:25:01.217Z,77.34
2016-04-07T09:26:01.397Z,77.62
2016-04-07T09:27:01.170Z,77.62
2016-04-07T09:28:01.147Z,77.62
2016-04-07T09:29:01.102Z,77.69
2016-04-07T09:30:01.054Z,77.44
2016-04-07T09:31:01.023Z,77.62
2016-04-07T09:32:00.977Z,77.15
2016-04-07T09:33:00.940Z,77.4
2016-04-07T09:34:00.900Z,77.01
2016-04-07T09:35:00.860Z,77.53
2016-04-07T09:36:00.789Z,77.34
2016-04-07T09:37:00.750Z,77.34
2016-04-07T09:38:00.693Z,77.72
2016-04-07T09:39:00.651Z,77.3
2016-04-07T09:40:00.812Z,77.3
2016-04-07T09:41:00.567Z,77.44
2016-04-07T09:42:00.493Z,77.06
2016-04-07T09:43:00.450Z,77.15
2016-04-07T09:44:00.406Z,77.34
2016-04-07T09:45:00.363Z,77.15
2016-04-07T09:46:00.304Z,77.06
2016-04-07T09:47:00.244Z,77.34
2016-04-07T09:48:00.185Z,76.77
2016-04-07T09:49:00.141Z,76.48
2016-04-07T09:50:00.081Z,76.29
2016-04-07T09:51:00.053Z,76.48
2016-04-07T09:51:59.977Z,76.39
2016-04-07T09:52:59.933Z,76.48
2016-04-07T09:53:59.888Z,76.29
2016-04-07T09:54:59.860Z,76.29
2016-04-07T09:55:59.769Z,76.2
2016-04-07T09:56:59.710Z,76.48
2016-04-07T09:57:59.681Z,76.39
2016-04-07T09:58:59.621Z,76.39
2016-04-07T09:59:59.577Z,76.39
2016-04-07T10:00:59.517Z,75.91
2016-04-07T10:01:59.473Z,75.72
2016-04-07T10:02:59.428Z,76.1
2016-04-07T10:03:59.353Z,75.72
2016-04-07T10:04:59.309Z,76.2
2016-04-07T10:05:59.249Z,75.43
2016-04-07T10:06:59.190Z,75.81
2016-04-07T10:07:59.209Z,75.91
2016-04-07T10:08:59.116Z,75.34
2016-04-07T10:09:59.103Z,75.37
2016-04-07T10:10:58.981Z,74.99
2016-04-07T10:11:58.937Z,75.09
2016-04-07T10:12:58.877Z,74.61
2016-04-07T10:13:58.833Z,74.9
2016-04-07T10:14:58.805Z,74.32
2016-04-07T10:15:58.713Z,74.04
2016-04-07T10:16:58.686Z,74.04
2016-04-07T10:17:58.625Z,74.46
2016-04-07T10:18:58.581Z,73.41
2016-04-07T10:19:58.522Z,73.47
2016-04-07T10:20:58.477Z,72.99
2016-04-07T10:21:58.417Z,73.08
2016-04-07T10:22:58.357Z,73.32
2016-04-07T10:23:58.314Z,73.22
2016-04-07T10:24:58.347Z,73.03
2016-04-07T10:25:58.210Z,73.22
2016-04-07T10:26:58.166Z,73.69
2016-04-07T10:27:58.105Z,73.98
2016-04-07T10:28:58.061Z,73.79
2016-04-07T10:29:58.001Z,74.37
2016-04-07T10:30:57.957Z,73.22
2016-04-07T10:31:57.897Z,73.32
2016-04-07T10:32:57.868Z,73.12
2016-04-07T10:33:57.809Z,73.5
2016-04-07T10:34:57.734Z,73.5
2016-04-07T10:35:57.705Z,73.88
2016-04-07T10:36:57.661Z,73.69
2016-04-07T10:37:57.601Z,72.93
2016-04-07T10:38:57.541Z,72.36
2016-04-07T10:39:57.715Z,72.83
2016-04-07T10:40:57.452Z,72.55
2016-04-07T10:41:57.392Z,72.64
2016-04-07T10:42:57.364Z,72.36
2016-04-07T10:43:57.305Z,72.83
2016-04-07T10:44:57.651Z,72.74
2016-04-07T10:45:57.201Z,72.36
2016-04-07T10:46:57.141Z,72.64
2016-04-07T10:47:57.081Z,72.74
2016-04-07T10:48:57.037Z,72.17
2016-04-07T10:49:56.977Z,72.36
2016-04-07T10:50:56.949Z,72.64
2016-04-07T10:51:56.889Z,72.74
2016-04-07T10:52:56.845Z,72.07
2016-04-07T10:53:56.988Z,72.17
2016-04-07T10:54:56.741Z,73.32
2016-04-07T10:55:56.680Z,73.5
2016-04-07T10:56:56.636Z,73.5
2016-04-07T10:57:56.577Z,73.88
2016-04-07T10:58:56.532Z,72.74
2016-04-07T10:59:56.473Z,72.74
2016-04-07T11:00:56.428Z,73.03
2016-04-07T11:01:56.384Z,72.93
2016-04-07T11:02:56.356Z,72.55
2016-04-07T11:03:56.280Z,72.36
2016-04-07T11:04:56.237Z,72.55
2016-04-07T11:05:56.207Z,72.93
2016-04-07T11:06:56.132Z,73.03
2016-04-07T11:07:56.087Z,71.88
2016-04-07T11:08:56.012Z,71.5
2016-04-07T11:09:55.983Z,71.02
2016-04-07T11:10:55.923Z,71.41
2016-04-07T11:11:55.864Z,71.69
2016-04-07T11:12:55.820Z,71.69
2016-04-07T11:13:55.761Z,71.41
2016-04-07T11:14:55.717Z,71.41
2016-04-07T11:15:55.656Z,71.21
2016-04-07T11:16:55.831Z,71.59
2016-04-07T11:17:55.567Z,71.5
2016-04-07T11:18:55.508Z,71.88
2016-04-07T11:19:55.480Z,71.5
2016-04-07T11:20:55.420Z,71.41
2016-04-07T11:21:55.361Z,71.41
2016-04-07T11:22:55.316Z,71.21
2016-04-07T11:23:55.256Z,71.59
2016-04-07T11:24:55.211Z,71.59
2016-04-07T11:25:55.152Z,71.41
2016-04-07T11:26:55.107Z,71.21
2016-04-07T11:27:55.048Z,71.5
2016-04-07T11:28:55.004Z,71.41
2016-04-07T11:29:54.960Z,72.26
2016-04-07T11:30:54.900Z,72.01
2016-04-07T11:31:54.855Z,71.41
2016-04-07T11:32:54.812Z,71.59
2016-04-07T11:33:54.783Z,71.12
2016-04-07T11:34:54.707Z,71.31
2016-04-07T11:35:54.648Z,71.41
2016-04-07T11:36:54.604Z,71.21
2016-04-07T11:37:54.559Z,71.31
2016-04-07T11:38:54.515Z,71.31
2016-04-07T11:39:54.456Z,70.64
2016-04-07T11:40:54.427Z,70.07
2016-04-07T11:41:54.382Z,69.49
2016-04-07T11:42:54.307Z,69.31
2016-04-07T11:43:54.263Z,69.49
2016-04-07T11:44:54.234Z,69.49
2016-04-07T11:45:54.159Z,69.4
2016-04-07T11:46:54.131Z,69.11
2016-04-07T11:47:54.102Z,69.02
2016-04-07T11:48:54.026Z,68.82
2016-04-07T11:49:53.983Z,68.73
2016-04-07T11:50:53.891Z,68.73
2016-04-07T11:51:53.847Z,69.02
2016-04-07T11:52:53.834Z,68.73
2016-04-07T11:53:53.743Z,68.63
2016-04-07T11:54:53.746Z,69.11
2016-04-07T11:55:53.639Z,69.68
2016-04-07T11:56:53.595Z,69.68
2016-04-07T11:57:53.535Z,69.59
2016-04-07T11:58:53.507Z,69.78
2016-04-07T11:59:53.447Z,69.78
2016-04-07T12:00:53.387Z,69.21
2016-04-07T12:01:53.343Z,69.68
2016-04-07T12:02:53.283Z,70.07
2016-04-07T12:03:53.223Z,70.26
2016-04-07T12:04:53.179Z,70.16
2016-04-07T12:05:53.135Z,69.74
2016-04-07T12:06:53.059Z,69.37
2016-04-07T12:07:53.077Z,70.26
2016-04-07T12:08:52.971Z,70.45
2016-04-07T12:09:52.926Z,70.07
2016-04-07T12:10:52.867Z,69.49
2016-04-07T12:11:52.837Z,68.98
2016-04-07T12:12:52.809Z,69.46
2016-04-07T12:13:52.734Z,70.22
2016-04-07T12:14:52.690Z,70.32
2016-04-07T12:15:52.599Z,70.13
2016-04-07T12:16:52.555Z,69.4
2016-04-07T12:17:52.526Z,69.74
2016-04-07T12:18:52.450Z,69.68
2016-04-07T12:19:52.406Z,69.87
2016-04-07T12:20:52.347Z,69.4
2016-04-07T12:21:52.396Z,70.07
2016-04-07T12:22:52.242Z,69.68
2016-04-07T12:23:52.198Z,70.16
2016-04-07T12:24:52.122Z,70.07
2016-04-07T12:25:52.079Z,70.16
2016-04-07T12:26:52.035Z,70.45
2016-04-07T12:27:51.991Z,70.64
2016-04-07T12:28:51.930Z,69.97
2016-04-07T12:29:51.871Z,70.16
2016-04-07T12:30:51.827Z,70.26
2016-04-07T12:31:51.766Z,70.16
2016-04-07T12:32:51.707Z,70.36
2016-04-07T12:33:51.662Z,70.16
2016-04-07T12:34:51.618Z,70.26
2016-04-07T12:35:51.574Z,70.16
2016-04-07T12:36:51.530Z,70.07
2016-04-07T12:37:51.471Z,70.16
2016-04-07T12:38:51.410Z,70.64
2016-04-07T12:39:51.382Z,70.07
2016-04-07T12:40:51.400Z,70.64
2016-04-07T12:41:51.262Z,70.07
2016-04-07T12:42:51.203Z,70.45
2016-04-07T12:43:51.174Z,70.36
2016-04-07T12:44:51.099Z,70.45
2016-04-07T12:45:51.054Z,70.07
2016-04-07T12:46:51.011Z,70.26
2016-04-07T12:47:50.950Z,70.73
2016-04-07T12:48:50.906Z,70.07
2016-04-07T12:49:50.846Z,70.07
2016-04-07T12:50:50.817Z,70.07
2016-04-07T12:51:50.758Z,70.07
2016-04-07T12:52:50.697Z,70.26
2016-04-07T12:53:50.655Z,70.36
2016-04-07T12:54:50.453Z,70.26